createdAt,value
2023-04-27T00:00:48.556Z,98589.34
2023-04-27T00:03:16.207Z,98591.84
2023-04-27T00:05:44.225Z,98583.19
2023-04-27T00:08:11.185Z,98596.19
2023-04-27T00:10:37.777Z,98594.53
2023-04-27T00:13:04.651Z,98590.16
2023-04-27T00:15:31.411Z,98600.34
2023-04-27T00:17:58.016Z,98600.38
2023-04-27T00:20:25.233Z,98596.97
2023-04-27T00:22:51.957Z,98600.38
2023-04-27T00:25:18.527Z,98590.94
2023-04-27T00:27:45.220Z,98595.34
2023-04-27T00:30:12.008Z,98593.72
2023-04-27T00:32:38.622Z,98596.38
2023-04-27T00:35:05.390Z,98590.22
2023-04-27T00:37:32.514Z,98590.28
2023-04-27T00:39:59.052Z,98592.25
2023-04-27T00:42:25.738Z,98591.59
2023-04-27T00:44:52.333Z,98596.19
2023-04-27T00:47:19.296Z,98596.41
2023-04-27T00:49:46.097Z,98588.88
2023-04-27T00:52:12.674Z,98598.47
2023-04-27T00:54:39.240Z,98598.59
2023-04-27T00:57:06.465Z,98597.00
2023-04-27T00:59:33.054Z,98602.28
2023-04-27T01:01:59.741Z,98598.91
2023-04-27T01:04:27.115Z,98600.63
2023-04-27T01:06:53.970Z,98605.69
2023-04-27T01:09:21.500Z,98605.63
2023-04-27T01:11:48.016Z,98602.09
2023-04-27T01:14:14.897Z,98603.59
2023-04-27T01:16:41.434Z,98604.94
2023-04-27T01:19:08.801Z,98598.78
2023-04-27T01:21:35.614Z,98596.22
2023-04-27T01:24:04.074Z,98596.03
2023-04-27T01:26:30.677Z,98589.78
2023-04-27T01:28:57.288Z,98594.94
2023-04-27T01:31:24.357Z,98589.84
2023-04-27T01:33:51.019Z,98588.69
2023-04-27T01:36:17.612Z,98585.22
2023-04-27T01:38:44.366Z,98586.94
2023-04-27T01:41:10.931Z,98583.69
2023-04-27T01:43:37.487Z,98585.22
2023-04-27T01:46:13.964Z,98585.84
2023-04-27T01:48:41.047Z,98592.44
2023-04-27T01:51:07.773Z,98598.09
2023-04-27T01:53:34.652Z,98594.22
2023-04-27T01:56:01.311Z,98599.66
2023-04-27T01:58:28.328Z,98605.03
2023-04-27T02:00:55.033Z,98607.78
2023-04-27T02:03:22.190Z,98612.06
2023-04-27T02:05:49.073Z,98611.94
2023-04-27T02:08:15.670Z,98610.00
2023-04-27T02:10:42.287Z,98606.31
2023-04-27T02:13:09.974Z,98604.38
2023-04-27T02:15:36.656Z,98617.19
2023-04-27T02:18:03.625Z,98614.50
2023-04-27T02:20:31.399Z,98617.19
2023-04-27T02:22:58.001Z,98620.78
2023-04-27T02:25:24.883Z,98629.56
2023-04-27T02:27:51.513Z,98624.53
2023-04-27T02:30:18.305Z,98622.00
2023-04-27T02:32:46.405Z,98618.59
2023-04-27T02:35:13.217Z,98632.38
2023-04-27T02:37:39.846Z,98635.03
2023-04-27T02:40:08.001Z,98633.38
2023-04-27T02:42:34.698Z,98633.44
2023-04-27T02:45:01.247Z,98630.03
2023-04-27T02:47:27.895Z,98638.66
2023-04-27T02:49:54.512Z,98639.47
2023-04-27T02:52:21.270Z,98638.50
2023-04-27T02:54:47.820Z,98645.28
2023-04-27T02:57:14.412Z,98645.09
2023-04-27T02:59:41.025Z,98662.25
2023-04-27T03:02:07.822Z,98662.25
2023-04-27T03:04:36.664Z,98657.84
2023-04-27T03:07:03.769Z,98662.81
2023-04-27T03:09:30.289Z,98662.78
2023-04-27T03:11:56.856Z,98664.53
2023-04-27T03:14:23.475Z,98665.34
2023-04-27T03:16:50.082Z,98679.06
2023-04-27T03:19:16.759Z,98668.75
2023-04-27T03:21:43.347Z,98680.00
2023-04-27T03:24:09.912Z,98680.94
2023-04-27T03:26:36.488Z,98680.94
2023-04-27T03:29:03.019Z,98675.56
2023-04-27T03:31:29.614Z,98670.97
2023-04-27T03:33:57.128Z,98675.16
2023-04-27T03:36:23.706Z,98681.16
2023-04-27T03:38:50.283Z,98683.72
2023-04-27T03:41:16.895Z,98680.22
2023-04-27T03:43:43.534Z,98688.69
2023-04-27T03:46:10.114Z,98690.34
2023-04-27T03:48:36.850Z,98691.97
2023-04-27T03:51:03.519Z,98697.09
2023-04-27T03:53:30.099Z,98691.84
2023-04-27T03:55:56.688Z,98691.59
2023-04-27T03:58:23.266Z,98685.22
2023-04-27T04:00:49.849Z,98685.81
2023-04-27T04:03:16.607Z,98702.03
2023-04-27T04:05:43.516Z,98703.66
2023-04-27T04:08:10.066Z,98702.59
2023-04-27T04:10:36.929Z,98688.50
2023-04-27T04:13:03.498Z,98706.47
2023-04-27T04:15:30.188Z,98703.69
2023-04-27T04:17:56.913Z,98705.31
2023-04-27T04:20:23.565Z,98706.88
2023-04-27T04:22:50.125Z,98705.81
2023-04-27T04:25:16.722Z,98711.66
2023-04-27T04:27:46.303Z,98712.28
2023-04-27T04:30:13.546Z,98715.59
2023-04-27T04:32:40.374Z,98715.38
2023-04-27T04:35:07.169Z,98716.84
2023-04-27T04:37:35.387Z,98719.19
2023-04-27T04:40:08.936Z,98714.53
2023-04-27T04:42:37.169Z,98721.09
2023-04-27T04:45:03.946Z,98717.22
2023-04-27T04:47:34.430Z,98720.38
2023-04-27T04:50:01.187Z,98710.53
2023-04-27T04:52:27.888Z,98720.75
2023-04-27T04:54:54.450Z,98712.78
2023-04-27T04:57:21.471Z,98719.44
2023-04-27T04:59:48.324Z,98720.13
2023-04-27T05:02:15.023Z,98718.13
2023-04-27T05:04:41.834Z,98724.84
2023-04-27T05:07:08.524Z,98716.81
2023-04-27T05:09:35.388Z,98720.97
2023-04-27T05:12:02.179Z,98726.00
2023-04-27T05:14:28.780Z,98736.19
2023-04-27T05:16:55.424Z,98733.34
2023-04-27T05:19:22.086Z,98728.75
2023-04-27T05:21:48.807Z,98731.13
2023-04-27T05:24:15.373Z,98737.78
2023-04-27T05:26:42.979Z,98733.22
2023-04-27T05:29:09.555Z,98733.00
2023-04-27T05:31:36.467Z,98736.22
2023-04-27T05:34:03.121Z,98734.31
2023-04-27T05:36:29.749Z,98740.09
2023-04-27T05:38:56.325Z,98741.50
2023-04-27T05:41:23.840Z,98730.78
2023-04-27T05:43:50.552Z,98736.53
2023-04-27T05:46:17.235Z,98731.00
2023-04-27T05:48:43.853Z,98742.81
2023-04-27T05:51:10.484Z,98744.16
2023-04-27T05:53:37.107Z,98742.13
2023-04-27T05:56:06.643Z,98737.44
2023-04-27T05:58:33.556Z,98740.69
2023-04-27T06:01:03.869Z,98734.41
2023-04-27T06:03:31.307Z,98743.59
2023-04-27T06:05:59.310Z,98732.00
2023-04-27T06:08:26.133Z,98723.88
2023-04-27T06:10:53.047Z,98722.78
2023-04-27T06:13:19.891Z,98717.31
2023-04-27T06:15:46.623Z,98709.22
2023-04-27T06:18:13.269Z,98741.97
2023-04-27T06:20:40.051Z,98701.88
2023-04-27T06:23:06.625Z,98722.63
2023-04-27T06:25:33.262Z,98691.22
2023-04-27T06:27:59.901Z,98730.19
2023-04-27T06:30:26.801Z,98719.47
2023-04-27T06:32:53.646Z,98746.22
2023-04-27T06:35:21.545Z,98746.81
2023-04-27T06:37:48.072Z,98732.44
2023-04-27T06:40:14.749Z,98746.88
2023-04-27T06:42:41.449Z,98688.13
2023-04-27T06:45:08.261Z,98723.50
2023-04-27T06:47:34.821Z,98725.78
2023-04-27T06:50:01.465Z,98743.78
2023-04-27T06:52:28.089Z,98740.06
2023-04-27T06:54:54.882Z,98749.59
2023-04-27T06:57:21.658Z,98725.25
2023-04-27T06:59:48.206Z,98734.75
2023-04-27T07:02:14.831Z,98716.34
2023-04-27T07:04:41.620Z,98731.66
2023-04-27T07:07:08.239Z,98692.91
2023-04-27T07:09:34.773Z,98669.97
2023-04-27T07:12:01.576Z,98749.22
2023-04-27T07:14:28.159Z,98665.16
2023-04-27T07:16:55.816Z,98725.03
2023-04-27T07:19:22.395Z,98693.31
2023-04-27T07:21:50.144Z,98674.63
2023-04-27T07:24:16.726Z,98574.13
2023-04-27T07:26:43.314Z,98693.31
2023-04-27T07:29:25.609Z,98689.50
2023-04-27T07:31:54.254Z,98725.75
2023-04-27T07:34:20.845Z,98676.59
2023-04-27T07:36:47.562Z,98757.84
2023-04-27T07:39:14.963Z,98725.53
2023-04-27T07:41:41.696Z,98713.34
2023-04-27T07:44:08.339Z,98720.13
2023-04-27T07:46:34.980Z,98729.72
2023-04-27T07:49:02.445Z,98716.13
2023-04-27T07:51:29.393Z,98730.75
2023-04-27T07:53:56.441Z,98708.75
2023-04-27T07:56:23.062Z,98755.91
2023-04-27T07:58:49.600Z,98752.22
2023-04-27T08:01:18.374Z,98677.00
2023-04-27T08:03:46.225Z,98702.28
2023-04-27T08:06:13.264Z,98654.03
2023-04-27T08:08:40.032Z,98678.72
2023-04-27T08:11:09.259Z,98700.66
2023-04-27T08:13:36.287Z,98743.00
2023-04-27T08:16:03.138Z,98681.63
2023-04-27T08:18:29.756Z,98710.16
2023-04-27T08:20:56.280Z,98757.06
2023-04-27T08:23:22.910Z,98715.56
2023-04-27T08:25:49.544Z,98698.31
2023-04-27T08:28:16.132Z,98667.06
2023-04-27T08:30:43.522Z,98691.91
2023-04-27T08:33:10.790Z,98729.06
2023-04-27T08:35:37.454Z,98589.00
2023-04-27T08:38:04.033Z,98615.25
2023-04-27T08:40:30.780Z,98583.16
2023-04-27T08:42:58.403Z,98693.97
2023-04-27T08:45:25.588Z,98682.53
2023-04-27T08:47:52.329Z,98689.97
2023-04-27T08:50:19.372Z,98722.34
2023-04-27T08:52:46.439Z,98750.31
2023-04-27T08:55:15.712Z,98690.56
2023-04-27T08:57:53.417Z,98670.28
2023-04-27T09:00:20.325Z,98725.31
2023-04-27T09:02:47.436Z,98684.63
2023-04-27T09:05:22.121Z,98734.50
2023-04-27T09:08:05.535Z,98756.66
2023-04-27T09:10:43.758Z,98740.88
2023-04-27T09:13:10.273Z,98729.97
2023-04-27T09:15:50.702Z,98718.81
2023-04-27T09:18:21.466Z,98687.34
2023-04-27T09:20:52.525Z,98668.34
2023-04-27T09:23:29.657Z,98648.25
2023-04-27T09:25:57.153Z,98623.00
2023-04-27T09:28:24.871Z,98647.66
2023-04-27T09:30:55.494Z,98530.25
2023-04-27T09:33:26.383Z,98529.59
2023-04-27T09:35:53.276Z,98515.44
2023-04-27T09:38:20.659Z,98497.59
2023-04-27T09:40:47.760Z,98493.34
2023-04-27T09:43:14.566Z,98457.59
2023-04-27T09:45:41.322Z,98468.00
2023-04-27T09:48:08.353Z,98406.97
2023-04-27T09:50:38.055Z,98458.22
2023-04-27T09:53:13.728Z,98495.06
2023-04-27T09:55:42.369Z,98517.63
2023-04-27T09:58:20.922Z,98611.75
2023-04-27T10:01:11.201Z,98612.94
2023-04-27T10:03:43.823Z,98633.84
2023-04-27T10:06:10.640Z,98618.16
2023-04-27T10:08:37.481Z,98541.59
2023-04-27T10:11:17.242Z,98521.81
2023-04-27T10:13:54.806Z,98487.72
2023-04-27T10:18:55.524Z,98325.59
2023-04-27T10:21:22.359Z,98173.50
2023-04-27T10:23:51.050Z,98267.84
2023-04-27T10:26:24.278Z,98050.16
2023-04-27T10:29:18.199Z,98103.13
2023-04-27T10:31:48.751Z,98220.53
2023-04-27T10:34:21.195Z,97908.94
2023-04-27T10:36:48.184Z,98073.00
2023-04-27T10:39:18.705Z,98086.25
2023-04-27T10:41:51.780Z,98117.22
2023-04-27T10:44:26.596Z,98207.53
2023-04-27T10:46:53.706Z,98209.31
2023-04-27T10:49:20.673Z,98334.00
2023-04-27T10:51:47.867Z,98423.25
2023-04-27T10:54:14.386Z,98484.88
2023-04-27T10:56:41.659Z,98574.91
2023-04-27T10:59:08.531Z,98652.09
2023-04-27T11:01:35.738Z,98718.53
2023-04-27T11:04:03.666Z,98743.88
2023-04-27T11:06:32.176Z,98743.19
2023-04-27T11:08:59.135Z,98774.97
2023-04-27T11:11:26.390Z,98817.56
2023-04-27T11:13:53.408Z,98816.31
2023-04-27T11:16:20.233Z,98850.03
2023-04-27T11:18:46.878Z,98843.31
2023-04-27T11:21:17.712Z,98837.06
2023-04-27T11:23:44.566Z,98835.16
2023-04-27T11:26:17.000Z,98838.41
2023-04-27T11:28:43.525Z,98852.34
2023-04-27T11:31:11.388Z,98844.56
2023-04-27T11:33:39.928Z,98850.25
2023-04-27T11:36:16.029Z,98841.53
2023-04-27T11:38:42.966Z,98777.34
2023-04-27T11:41:09.526Z,98569.34
2023-04-27T11:43:37.384Z,98503.81
2023-04-27T11:46:04.895Z,98427.41
2023-04-27T11:48:31.494Z,98320.72
2023-04-27T11:51:01.649Z,98351.50
2023-04-27T11:53:36.299Z,98409.69
2023-04-27T11:56:05.530Z,98304.34
2023-04-27T11:58:36.312Z,98263.16
2023-04-27T12:01:06.798Z,98228.22
2023-04-27T12:03:33.917Z,98235.75
2023-04-27T12:06:16.184Z,98261.38
2023-04-27T12:08:47.639Z,98343.69
2023-04-27T12:11:14.501Z,98239.53
2023-04-27T12:13:41.095Z,98254.28
2023-04-27T12:16:07.691Z,98269.34
2023-04-27T12:18:34.300Z,98149.88
2023-04-27T12:21:03.161Z,98127.28
2023-04-27T12:23:30.165Z,98114.81
2023-04-27T12:25:56.749Z,98182.63
2023-04-27T12:28:23.485Z,98221.66
2023-04-27T12:30:50.156Z,98065.53
2023-04-27T12:33:17.313Z,98018.78
2023-04-27T12:35:43.906Z,98120.97
2023-04-27T12:38:10.485Z,98076.25
2023-04-27T12:40:37.654Z,97988.53
2023-04-27T12:43:04.271Z,97996.63
2023-04-27T12:45:31.068Z,97830.97
2023-04-27T12:48:02.671Z,97806.03
2023-04-27T12:50:31.011Z,97904.78
2023-04-27T12:52:57.536Z,97869.25
2023-04-27T12:55:32.843Z,97830.03
2023-04-27T12:58:00.129Z,97755.06
2023-04-27T13:00:26.767Z,97770.22
2023-04-27T13:02:53.745Z,97756.41
2023-04-27T13:05:22.124Z,97624.22
2023-04-27T13:07:48.839Z,97632.00
2023-04-27T13:10:15.449Z,97656.75
2023-04-27T13:12:42.207Z,97688.28
2023-04-27T13:15:09.250Z,97700.56
2023-04-27T13:17:35.874Z,97706.16
2023-04-27T13:20:02.494Z,97782.78
2023-04-27T13:22:29.452Z,97771.59
2023-04-27T13:24:56.324Z,97754.69
2023-04-27T13:27:25.248Z,97765.75
2023-04-27T13:29:51.854Z,97822.88
2023-04-27T13:32:18.726Z,97875.56
2023-04-27T13:34:45.547Z,97851.69
2023-04-27T13:37:12.126Z,97872.59
2023-04-27T13:39:38.751Z,97901.47
2023-04-27T13:42:05.549Z,97959.38
2023-04-27T13:44:32.132Z,98022.22
2023-04-27T13:46:58.811Z,98059.81
2023-04-27T13:49:26.023Z,98059.22
2023-04-27T13:51:52.683Z,98022.47
2023-04-27T13:54:20.068Z,98016.00
2023-04-27T13:56:46.660Z,98046.91
2023-04-27T13:59:13.458Z,98083.13
2023-04-27T14:01:40.347Z,98103.06
2023-04-27T14:04:07.647Z,98075.25
2023-04-27T14:06:34.403Z,98080.06
2023-04-27T14:09:01.135Z,98012.88
2023-04-27T14:11:27.783Z,98041.75
2023-04-27T14:13:54.313Z,97956.50
2023-04-27T14:16:20.973Z,98016.22
2023-04-27T14:18:47.704Z,97966.16
2023-04-27T14:21:14.292Z,97969.66
2023-04-27T14:23:41.060Z,97904.47
2023-04-27T14:26:07.704Z,97922.22
2023-04-27T14:28:34.702Z,97848.03
2023-04-27T14:31:01.282Z,97907.88
2023-04-27T14:33:28.014Z,97831.81
2023-04-27T14:35:54.567Z,97824.75
2023-04-27T14:38:21.181Z,97849.34
2023-04-27T14:40:47.973Z,97883.69
2023-04-27T14:43:14.574Z,97890.78
2023-04-27T14:45:51.538Z,97961.91
2023-04-27T14:48:20.981Z,97994.94
2023-04-27T14:50:47.520Z,98000.84
2023-04-27T14:53:14.092Z,97995.25
2023-04-27T14:55:41.348Z,98015.63
2023-04-27T14:58:07.892Z,98025.38
2023-04-27T15:00:34.496Z,98032.19
2023-04-27T15:03:01.427Z,98038.53
2023-04-27T15:05:28.198Z,98075.25
2023-04-27T15:07:54.992Z,98094.09
2023-04-27T15:10:21.691Z,98105.19
2023-04-27T15:12:48.256Z,98114.63
2023-04-27T15:15:14.902Z,98123.91
2023-04-27T15:17:41.775Z,98139.50
2023-04-27T15:20:08.791Z,98151.16
2023-04-27T15:22:35.409Z,98164.53
2023-04-27T15:25:02.382Z,98174.41
2023-04-27T15:27:29.582Z,98184.72
2023-04-27T15:29:58.090Z,98209.88
2023-04-27T15:32:29.960Z,98250.09
2023-04-27T15:34:59.775Z,98275.03
2023-04-27T15:37:28.170Z,98308.66
2023-04-27T15:39:55.119Z,98339.09
2023-04-27T15:42:22.084Z,98394.72
2023-04-27T15:44:48.630Z,98426.91
2023-04-27T15:47:15.671Z,98447.59
2023-04-27T15:49:53.363Z,98423.47
2023-04-27T15:52:23.134Z,98416.91
2023-04-27T15:54:49.732Z,98474.47
2023-04-27T15:57:18.221Z,98478.78
2023-04-27T15:59:44.842Z,98517.50
2023-04-27T16:02:11.560Z,98511.59
2023-04-27T16:04:38.189Z,98497.88
2023-04-27T16:07:06.993Z,98498.53
2023-04-27T16:09:33.781Z,98502.38
2023-04-27T16:12:00.472Z,98500.13
2023-04-27T16:14:27.071Z,98522.47
2023-04-27T16:16:56.192Z,98538.59
2023-04-27T16:19:23.626Z,98540.66
2023-04-27T16:21:50.383Z,98600.72
2023-04-27T16:24:16.932Z,98594.78
2023-04-27T16:26:43.490Z,98579.16
2023-04-27T16:29:10.307Z,98586.38
2023-04-27T16:31:37.312Z,98596.47
2023-04-27T16:34:04.308Z,98606.41
2023-04-27T16:36:32.900Z,98632.94
2023-04-27T16:39:00.149Z,98635.81
2023-04-27T16:41:26.940Z,98661.50
2023-04-27T16:43:53.790Z,98672.34
2023-04-27T16:46:20.517Z,98677.19
2023-04-27T16:48:47.168Z,98677.34
2023-04-27T16:51:14.182Z,98681.91
2023-04-27T16:53:41.413Z,98693.59
2023-04-27T16:56:08.126Z,98718.63
2023-04-27T16:58:36.161Z,98723.34
2023-04-27T17:01:02.801Z,98720.97
2023-04-27T17:03:30.117Z,98721.06
2023-04-27T17:05:56.939Z,98757.88
2023-04-27T17:08:23.540Z,98742.28
2023-04-27T17:10:50.198Z,98758.09
2023-04-27T17:13:17.397Z,98757.19
2023-04-27T17:15:44.200Z,98756.66
2023-04-27T17:18:10.895Z,98774.69
2023-04-27T17:20:38.793Z,98796.44
2023-04-27T17:23:07.164Z,98826.81
2023-04-27T17:25:33.787Z,98863.97
2023-04-27T17:28:01.507Z,98868.78
2023-04-27T17:30:29.093Z,98901.53
2023-04-27T17:32:55.871Z,98874.75
2023-04-27T17:35:22.587Z,98886.22
2023-04-27T17:37:49.228Z,98890.81
2023-04-27T17:40:19.998Z,98870.78
2023-04-27T17:42:47.343Z,98879.44
2023-04-27T17:45:14.180Z,98900.41
2023-04-27T17:47:40.932Z,98884.66
2023-04-27T17:50:08.010Z,98880.34
2023-04-27T17:52:34.686Z,98890.03
2023-04-27T17:55:01.290Z,98912.72
2023-04-27T17:57:27.925Z,98900.53
2023-04-27T17:59:54.505Z,98891.88
2023-04-27T18:02:21.304Z,98899.81
2023-04-27T18:04:48.009Z,98905.22
2023-04-27T18:07:14.604Z,98904.34
2023-04-27T18:09:41.304Z,98899.41
2023-04-27T18:12:11.152Z,98905.94
2023-04-27T18:14:38.564Z,98931.63
2023-04-27T18:17:05.510Z,98934.38
2023-04-27T18:19:32.143Z,98947.59
2023-04-27T18:21:58.799Z,98972.34
2023-04-27T18:24:25.441Z,98990.94
2023-04-27T18:26:52.014Z,98997.47
2023-04-27T18:29:18.687Z,99016.97
2023-04-27T18:31:46.255Z,99008.44
2023-04-27T18:34:14.227Z,99008.44
2023-04-27T18:36:40.883Z,99015.50
2023-04-27T18:39:07.461Z,99036.34
2023-04-27T18:41:34.107Z,99015.25
2023-04-27T18:44:04.921Z,99016.19
2023-04-27T18:46:32.094Z,99022.47
2023-04-27T18:48:59.035Z,99023.44
2023-04-27T18:51:26.347Z,99034.00
2023-04-27T18:53:53.353Z,99041.06
2023-04-27T18:56:20.046Z,99035.13
2023-04-27T18:58:48.515Z,99064.94
2023-04-27T19:01:19.473Z,99070.53
2023-04-27T19:03:46.162Z,99063.84
2023-04-27T19:06:13.549Z,99077.88
2023-04-27T19:08:41.585Z,99096.44
2023-04-27T19:11:08.399Z,99108.03
2023-04-27T19:13:35.010Z,99088.22
2023-04-27T19:16:01.693Z,99110.22
2023-04-27T19:18:28.632Z,99105.19
2023-04-27T19:20:55.338Z,99117.72
2023-04-27T19:23:21.934Z,99143.25
2023-04-27T19:25:48.589Z,99145.31
2023-04-27T19:28:20.514Z,99163.81
2023-04-27T19:30:47.382Z,99186.75
2023-04-27T19:33:14.420Z,99196.50
2023-04-27T19:35:41.558Z,99206.28
2023-04-27T19:38:08.155Z,99203.94
2023-04-27T19:40:34.769Z,99220.78
2023-04-27T19:43:01.403Z,99234.94
2023-04-27T19:45:27.917Z,99253.44
2023-04-27T19:47:54.572Z,99264.97
2023-04-27T19:50:21.166Z,99256.41
2023-04-27T19:52:47.853Z,99269.63
2023-04-27T19:55:14.444Z,99282.84
2023-04-27T19:57:41.278Z,99308.28
2023-04-27T20:00:12.102Z,99311.91
2023-04-27T20:02:38.992Z,99345.13
2023-04-27T20:05:06.294Z,99327.84
2023-04-27T20:07:33.083Z,99318.41
2023-04-27T20:09:59.772Z,99320.22
2023-04-27T20:12:47.361Z,99304.50
2023-04-27T20:15:13.398Z,99265.22
2023-04-27T20:17:40.016Z,99266.81
2023-04-27T20:20:10.076Z,99274.56
2023-04-27T20:22:37.079Z,99324.97
2023-04-27T20:25:04.262Z,99313.56
2023-04-27T20:27:30.911Z,99419.66
2023-04-27T20:29:57.489Z,99332.53
2023-04-27T20:32:24.004Z,99315.03
2023-04-27T20:34:50.724Z,99284.50
2023-04-27T20:37:17.319Z,99246.91
2023-04-27T20:39:43.935Z,99224.88
2023-04-27T20:42:12.550Z,99215.97
2023-04-27T20:44:39.206Z,99203.63
2023-04-27T20:47:06.057Z,99203.41
2023-04-27T20:49:35.390Z,99200.69
2023-04-27T20:52:02.618Z,99203.22
2023-04-27T20:54:32.678Z,99220.50
2023-04-27T20:57:01.934Z,99209.16
2023-04-27T20:59:28.884Z,99206.53
2023-04-27T21:01:56.342Z,99227.44
2023-04-27T21:04:23.123Z,99215.28
2023-04-27T21:06:49.773Z,99234.56
2023-04-27T21:09:16.345Z,99237.22
2023-04-27T21:11:43.196Z,99231.25
2023-04-27T21:14:09.858Z,99260.88
2023-04-27T21:16:36.440Z,99267.06
2023-04-27T21:19:03.134Z,99255.75
2023-04-27T21:21:29.687Z,99274.09
2023-04-27T21:24:06.525Z,99255.94
2023-04-27T21:26:34.388Z,99258.59
2023-04-27T21:29:01.513Z,99278.72
2023-04-27T21:31:28.158Z,99253.47
2023-04-27T21:33:54.838Z,99264.00
2023-04-27T21:36:21.574Z,99279.72
2023-04-27T21:38:48.175Z,99288.56
2023-04-27T21:41:16.609Z,99298.19
2023-04-27T21:43:43.469Z,99298.19
2023-04-27T21:46:10.097Z,99304.34
2023-04-27T21:48:36.734Z,99270.38
2023-04-27T21:51:03.379Z,99266.09
2023-04-27T21:53:30.631Z,99249.56
2023-04-27T21:55:57.353Z,99230.47
2023-04-27T21:58:24.421Z,99244.50
2023-04-27T22:00:51.667Z,99255.91
2023-04-27T22:03:18.397Z,99167.19
2023-04-27T22:05:45.509Z,99186.44
2023-04-27T22:08:12.230Z,99156.09
2023-04-27T22:10:38.840Z,99110.94
2023-04-27T22:13:17.693Z,99120.63
2023-04-27T22:15:46.154Z,99039.00
2023-04-27T22:18:14.531Z,99019.84
2023-04-27T22:20:42.449Z,99008.66
2023-04-27T22:23:09.545Z,98979.13
2023-04-27T22:25:36.269Z,98966.97
2023-04-27T22:28:02.921Z,98948.00
2023-04-27T22:30:29.899Z,98915.19
2023-04-27T22:32:56.790Z,98894.53
2023-04-27T22:35:27.040Z,98883.47
2023-04-27T22:37:59.002Z,98876.66
2023-04-27T22:40:25.928Z,98874.19
2023-04-27T22:42:52.895Z,98864.06
2023-04-27T22:45:19.426Z,98849.47
2023-04-27T22:47:46.272Z,98844.47
2023-04-27T22:50:13.402Z,98835.91
2023-04-27T22:52:42.379Z,98831.56
2023-04-27T22:55:09.512Z,98827.34
2023-04-27T22:57:36.171Z,98837.19
2023-04-27T23:00:05.194Z,98820.34
2023-04-27T23:02:32.565Z,98792.81
2023-04-27T23:04:59.365Z,98793.66
2023-04-27T23:07:25.949Z,98801.53
2023-04-27T23:09:53.035Z,98780.00
2023-04-27T23:12:20.806Z,98792.16
2023-04-27T23:14:47.450Z,98783.41
2023-04-27T23:17:15.502Z,98788.72
2023-04-27T23:19:42.141Z,98780.97
2023-04-27T23:22:08.756Z,98774.16
2023-04-27T23:24:35.294Z,98776.88
2023-04-27T23:27:02.069Z,98777.06
2023-04-27T23:29:28.663Z,98781.75
2023-04-27T23:31:55.534Z,98782.13
2023-04-27T23:34:22.333Z,98785.06
2023-04-27T23:36:48.885Z,98766.97
2023-04-27T23:39:15.724Z,98777.22
2023-04-27T23:41:42.302Z,98784.81
2023-04-27T23:44:09.066Z,98780.25
2023-04-27T23:46:35.749Z,98784.38
2023-04-27T23:49:03.023Z,98784.28
2023-04-27T23:51:29.606Z,98781.75
2023-04-27T23:53:56.417Z,98782.72
2023-04-27T23:56:23.146Z,98781.09
2023-04-27T23:58:49.863Z,98787.13
